Time;durP1;ratioP1;P1;durP2;ratioP2;P2;SDS_P1;SDS_P2;PMS_P1;PMS_P2;Temp;Humidity;BMP_temperature;BMP_pressure;BME280_temperature;BME280_humidity;BME280_pressure;Samples;Min_cycle;Max_cycle;Signal;HPM_P1;HPM_P2
2022/09/02 00:00:19;;;;;;;7.15;5.70;;;;;;;26.92;64.13;101096.50;5072846;28;20536;-84
2022/09/02 00:02:48;;;;;;;8.35;5.65;;;;;;;26.70;64.34;101058.28;5074146;28;20039;-84
2022/09/02 00:05:13;;;;;;;9.32;5.72;;;;;;;26.78;64.18;101068.97;5073985;28;20535;-83
2022/09/02 00:07:39;;;;;;;7.88;5.80;;;;;;;26.91;64.05;101085.81;5073536;28;20032;-83
2022/09/02 00:10:05;;;;;;;8.65;5.80;;;;;;;26.94;63.99;101096.50;5072007;28;20047;-84
2022/09/02 00:12:30;;;;;;;9.32;6.07;;;;;;;26.96;64.18;101098.25;5073431;28;20646;-83
2022/09/02 00:14:56;;;;;;;;;;;;;;;26.92;63.96;101095.63;5073588;28;20119;-83
2022/09/02 00:17:22;;;;;;;6.53;5.47;;;;;;;26.91;64.07;101093.84;5073103;28;19916;-83
2022/09/02 00:19:47;;;;;;;7.43;5.60;;;;;;;26.85;64.05;101094.78;5068201;28;20453;-83
2022/09/02 00:22:13;;;;;;;6.88;5.63;;;;;;;26.91;64.13;101086.69;5071919;28;20016;-84
2022/09/02 00:24:39;;;;;;;7.32;5.72;;;;;;;26.89;64.20;101080.47;5063316;28;20036;-84
2022/09/02 00:27:04;;;;;;;7.80;5.45;;;;;;;26.93;64.34;101084.91;5050888;28;20111;-83
2022/09/02 00:29:30;;;;;;;8.95;5.72;;;;;;;26.81;64.39;101079.63;5072169;28;20111;-83
2022/09/02 00:31:56;;;;;;;9.40;5.60;;;;;;;26.87;64.49;101092.97;5073485;28;20020;-84
2022/09/02 00:34:22;;;;;;;6.35;5.28;;;;;;;26.84;64.04;101071.59;5072555;28;20089;-82
2022/09/02 00:36:48;;;;;;;9.60;5.38;;;;;;;26.85;64.40;101070.66;5073201;28;20586;-82
2022/09/02 00:39:13;;;;;;;8.98;5.65;;;;;;;26.77;64.36;101057.31;5071512;28;20028;-84
2022/09/02 00:41:41;;;;;;;7.43;5.50;;;;;;;26.92;64.12;101077.75;5054963;28;20409;-83
2022/09/02 00:44:10;;;;;;;9.73;5.38;;;;;;;26.78;64.48;101056.44;5054188;28;20028;-81
2022/09/02 00:46:36;;;;;;;8.23;5.90;;;;;;;26.89;64.23;101074.22;5072801;28;20020;-83
2022/09/02 00:49:14;;;;;;;8.60;5.75;;;;;;;26.69;64.30;101051.16;5046409;28;20036;-82
2022/09/02 00:51:47;;;;;;;8.00;5.57;;;;;;;26.88;64.08;101083.16;5063188;28;20123;-82
2022/09/02 00:54:14;;;;;;;10.77;5.50;;;;;;;26.89;64.17;101072.41;5054246;28;20056;-83
2022/09/02 00:56:42;;;;;;;6.75;5.65;;;;;;;26.90;63.92;101074.22;5048058;28;20031;-83
2022/09/02 00:59:11;;;;;;;7.90;5.28;;;;;;;26.83;64.02;101074.28;5056041;28;20154;-84
2022/09/02 01:01:37;;;;;;;9.90;5.70;;;;;;;26.92;63.87;101071.50;5029004;28;20397;-83
2022/09/02 01:04:03;;;;;;;6.43;5.13;;;;;;;26.85;64.13;101067.09;5061434;28;20033;-83
2022/09/02 01:06:32;;;;;;;7.05;5.38;;;;;;;26.73;63.92;101058.28;5050987;28;20515;-83
2022/09/02 01:09:04;;;;;;;8.25;5.60;;;;;;;26.92;64.06;101068.81;5071350;28;20032;-84
2022/09/02 01:11:43;;;;;;;6.78;5.35;;;;;;;26.90;64.14;101073.31;5054404;28;20032;-83
2022/09/02 01:14:12;;;;;;;11.98;5.75;;;;;;;26.89;64.07;101067.06;5071643;28;20032;-82
2022/09/02 01:16:43;;;;;;;6.07;5.38;;;;;;;26.79;64.04;101062.69;5071295;28;20150;-82
2022/09/02 01:19:22;;;;;;;7.47;5.50;;;;;;;26.80;64.13;101067.16;5053062;28;20032;-82
2022/09/02 01:21:55;;;;;;;7.07;5.28;;;;;;;26.86;64.32;101072.47;5054086;28;20024;-83
2022/09/02 01:24:24;;;;;;;6.53;5.20;;;;;;;26.84;64.23;101074.25;5054003;28;20028;-83
2022/09/02 01:26:51;;;;;;;5.82;5.18;;;;;;;26.86;64.21;101067.09;5037580;28;20016;-83
2022/09/02 01:29:17;;;;;;;7.78;5.28;;;;;;;26.80;64.27;101068.03;5071040;28;20158;-82
2022/09/02 01:31:44;;;;;;;6.93;5.07;;;;;;;26.84;63.89;101065.31;5053990;28;20501;-83
2022/09/02 01:34:10;;;;;;;6.72;4.90;;;;;;;26.84;64.02;101066.22;5071265;28;20066;-83
2022/09/02 01:36:37;;;;;;;9.55;5.00;;;;;;;26.79;64.04;101058.19;5071774;28;20033;-83
2022/09/02 01:39:03;;;;;;;6.28;5.07;;;;;;;26.79;64.25;101063.56;5064490;28;20083;-84
2022/09/02 01:41:28;;;;;;;5.72;5.00;;;;;;;26.78;64.35;101061.78;5071978;28;20024;-83
2022/09/02 01:43:54;;;;;;;7.32;5.03;;;;;;;26.77;63.99;101057.31;5071752;28;20032;-83
2022/09/02 01:46:22;;;;;;;10.35;5.10;;;;;;;26.85;64.08;101064.44;5071822;28;20021;-83
2022/09/02 01:48:49;;;;;;;7.40;4.82;;;;;;;26.81;64.00;101053.72;5070489;28;20086;-84
2022/09/02 01:51:17;;;;;;;6.00;4.88;;;;;;;26.84;64.18;101058.19;5053509;28;20025;-84
2022/09/02 01:53:43;;;;;;;5.65;4.93;;;;;;;26.79;64.12;101057.31;5071993;28;20028;-84
2022/09/02 01:56:09;;;;;;;6.93;4.93;;;;;;;26.68;64.08;101037.78;5070380;28;20478;-84
2022/09/02 01:58:35;;;;;;;8.68;4.93;;;;;;;26.77;64.29;101060.00;5070986;28;20142;-83
2022/09/02 02:01:00;;;;;;;6.03;4.78;;;;;;;26.73;64.35;101047.56;5071770;28;20077;-83
2022/09/02 02:03:26;;;;;;;6.82;5.10;;;;;;;26.79;64.12;101065.34;5052658;28;20075;-83
2022/09/02 02:05:52;;;;;;;7.05;5.00;;;;;;;26.69;64.20;101044.91;5053752;28;20040;-83
2022/09/02 02:08:18;;;;;;;;;;;;;;;26.81;64.10;101056.41;5070829;28;20028;-83
2022/09/02 02:10:43;;;;;;;9.35;5.20;;;;;;;26.65;64.27;101038.69;5071579;28;20377;-83
2022/09/02 02:13:09;;;;;;;9.13;4.70;;;;;;;26.77;64.17;101054.63;5070550;28;20604;-83
2022/09/02 02:15:40;;;;;;;5.75;4.72;;;;;;;26.77;64.52;101061.81;5071374;28;20202;-83
2022/09/02 02:18:06;;;;;;;7.63;4.93;;;;;;;26.83;64.42;101056.41;5069509;28;20024;-82
2022/09/02 02:20:32;;;;;;;7.20;4.40;;;;;;;26.75;64.36;101050.22;5069034;28;20025;-83
2022/09/02 02:22:58;;;;;;;8.75;5.15;;;;;;;26.76;64.41;101055.56;5071471;28;20028;-83
2022/09/02 02:25:23;;;;;;;8.60;4.90;;;;;;;26.61;64.32;101026.22;5070564;28;20027;-82
2022/09/02 02:27:50;;;;;;;6.00;4.80;;;;;;;26.59;64.55;101034.25;5071802;28;20449;-83
2022/09/02 02:30:16;;;;;;;6.68;4.85;;;;;;;26.63;64.17;101028.88;5071071;28;20473;-82
2022/09/02 02:32:43;;;;;;;6.85;5.22;;;;;;;26.83;64.01;101053.72;5069982;28;20044;-82
2022/09/02 02:35:10;;;;;;;5.10;4.47;;;;;;;26.80;64.19;101057.31;5071327;28;20016;-82
2022/09/02 02:37:35;;;;;;;8.77;4.53;;;;;;;26.74;64.14;101040.41;5071091;28;20482;-83
2022/09/02 02:40:03;;;;;;;8.45;5.43;;;;;;;26.72;64.15;101051.13;5070935;28;20030;-82
2022/09/02 02:42:28;;;;;;;5.63;4.45;;;;;;;26.76;64.30;101049.31;5068823;28;20060;-83
2022/09/02 02:44:54;;;;;;;6.65;4.72;;;;;;;26.72;64.48;101050.25;5061782;28;20060;-83
2022/09/02 02:47:20;;;;;;;7.03;4.75;;;;;;;26.67;64.15;101042.25;5053143;28;20036;-81
2022/09/02 02:49:45;;;;;;;6.70;4.97;;;;;;;26.76;64.03;101054.69;5074288;28;20052;-82
2022/09/02 02:52:11;;;;;;;6.40;4.90;;;;;;;26.80;64.05;101053.75;5075161;28;20054;-83
2022/09/02 02:54:36;;;;;;;;;;;;;;;26.83;63.99;101053.72;5056948;28;20025;-84
2022/09/02 02:57:03;;;;;;;7.32;5.00;;;;;;;26.74;64.22;101057.38;5074942;28;19909;-82
2022/09/02 02:59:29;;;;;;;5.97;4.60;;;;;;;26.72;64.54;101055.59;5063690;28;20460;-82
2022/09/02 03:01:55;;;;;;;7.65;4.72;;;;;;;26.76;64.42;101055.56;5074656;28;20413;-83
2022/09/02 03:04:21;;;;;;;8.23;4.80;;;;;;;26.76;64.39;101060.91;5074783;28;20025;-83
2022/09/02 03:06:46;;;;;;;7.03;5.13;;;;;;;26.73;64.27;101062.72;5074476;28;20024;-83
2022/09/02 03:09:12;;;;;;;7.80;4.80;;;;;;;26.71;64.55;101049.38;5074798;28;20123;-83
2022/09/02 03:11:38;;;;;;;6.15;4.50;;;;;;;26.65;64.21;101032.41;5074211;28;20051;-83
2022/09/02 03:14:04;;;;;;;7.97;4.88;;;;;;;26.75;64.18;101055.56;5074775;28;20031;-83
2022/09/02 03:16:30;;;;;;;6.90;5.00;;;;;;;26.30;64.19;100972.84;5074443;28;20103;-83
2022/09/02 03:18:55;;;;;;;9.00;4.90;;;;;;;26.74;64.20;101046.66;5074486;28;20397;-83
2022/09/02 03:21:21;;;;;;;6.93;4.90;;;;;;;26.78;64.18;101047.50;5063779;28;20024;-83
2022/09/02 03:23:47;;;;;;;;;;;;;;;26.80;64.16;101051.06;5074958;28;20379;-84
2022/09/02 03:26:17;;;;;;;5.60;4.40;;;;;;;26.74;64.37;101046.66;5036595;28;19916;-84
2022/09/02 03:28:43;;;;;;;8.93;5.05;;;;;;;26.65;64.36;101038.69;5070033;28;20115;-83
2022/09/02 03:31:17;;;;;;;7.35;5.07;;;;;;;26.71;64.10;101048.44;5074332;28;20186;-84
2022/09/02 03:33:42;;;;;;;6.60;4.68;;;;;;;26.72;64.27;101043.09;5074100;28;20051;-84
2022/09/02 03:36:40;;;;;;;7.65;4.43;;;;;;;26.49;64.27;101012.88;5073998;28;20029;-84
2022/09/02 03:39:07;;;;;;;7.15;4.80;;;;;;;26.74;63.98;101045.75;5073430;28;20016;-84
2022/09/02 03:41:33;;;;;;;6.05;4.57;;;;;;;26.71;64.13;101046.69;5074368;28;20028;-83
2022/09/02 03:44:01;;;;;;;8.77;4.85;;;;;;;26.75;64.15;101042.16;5058881;28;20028;-84
2022/09/02 03:46:26;;;;;;;6.35;4.53;;;;;;;26.70;64.35;101047.56;5063434;28;20020;-84
2022/09/02 03:48:52;;;;;;;6.65;4.30;;;;;;;26.78;64.07;101048.41;5055855;28;20032;-83
2022/09/02 03:51:19;;;;;;;5.85;4.70;;;;;;;26.75;64.00;101051.09;5073758;28;20020;-83
2022/09/02 03:53:45;;;;;;;7.95;4.47;;;;;;;26.71;64.52;101046.69;5074275;28;20654;-84
2022/09/02 03:56:13;;;;;;;5.72;4.53;;;;;;;26.74;64.60;101054.69;5053563;28;20025;-84
2022/09/02 03:58:39;;;;;;;7.45;4.90;;;;;;;26.76;64.42;101062.72;5066173;28;20112;-84
2022/09/02 04:01:05;;;;;;;6.40;4.85;;;;;;;26.73;64.44;101054.69;5064823;28;20048;-83
2022/09/02 04:03:30;;;;;;;6.75;4.68;;;;;;;26.59;64.55;101039.63;5059764;28;20492;-83
2022/09/02 04:05:56;;;;;;;6.00;4.72;;;;;;;26.54;64.44;101019.09;5073991;28;20035;-83
2022/09/02 04:08:22;;;;;;;6.22;4.72;;;;;;;26.68;64.40;101045.81;5057277;28;20070;-83
2022/09/02 04:10:48;;;;;;;7.78;4.70;;;;;;;26.71;64.66;101057.41;5073590;28;20029;-83
2022/09/02 04:13:14;;;;;;;5.78;4.35;;;;;;;26.69;64.65;101064.56;5037527;28;20028;-83
2022/09/02 04:15:43;;;;;;;;;;;;;;;26.81;64.27;101069.78;5056280;28;20024;-83
2022/09/02 04:18:13;;;;;;;7.32;4.47;;;;;;;26.72;64.24;101069.00;5072373;28;19960;-83
2022/09/02 04:20:40;;;;;;;7.53;4.90;;;;;;;26.71;63.92;101053.81;5070709;28;20056;-83
2022/09/02 04:23:06;;;;;;;5.85;4.75;;;;;;;26.74;63.83;101065.41;5054977;28;20043;-83
2022/09/02 04:25:32;;;;;;;5.25;4.75;;;;;;;26.78;63.82;101069.84;5066465;28;20025;-84
2022/09/02 04:27:57;;;;;;;;;;;;;;;26.77;63.43;101070.72;5062225;28;20029;-84
2022/09/02 04:30:24;;;;;;;6.50;4.95;;;;;;;26.69;63.54;101066.31;5069672;28;19912;-83
2022/09/02 04:32:51;;;;;;;7.97;5.20;;;;;;;26.63;63.67;101051.22;5043354;28;20528;-83
2022/09/02 04:35:17;;;;;;;6.80;4.55;;;;;;;26.62;63.61;101053.91;5054257;28;20028;-84
2022/09/02 04:37:46;;;;;;;5.28;4.78;;;;;;;26.71;63.64;101065.44;5052358;28;20047;-84
2022/09/02 04:40:11;;;;;;;9.52;5.47;;;;;;;26.68;63.32;101060.09;5067742;28;20029;-82
2022/09/02 04:42:37;;;;;;;8.52;4.97;;;;;;;26.63;63.54;101055.66;5047126;28;20020;-85
2022/09/02 04:45:03;;;;;;;;;;;;;;;26.77;63.55;101085.91;5055187;28;20099;-83
2022/09/02 04:47:29;;;;;;;7.78;5.03;;;;;;;26.74;63.40;101078.78;5070213;28;19913;-80
2022/09/02 04:49:55;;;;;;;6.72;4.65;;;;;;;26.53;63.82;101061.06;5069043;28;20032;-82
2022/09/02 04:52:20;;;;;;;10.20;5.45;;;;;;;26.66;63.77;101074.41;5070606;28;20496;-82
2022/09/02 04:54:46;;;;;;;5.25;4.45;;;;;;;26.53;63.98;101058.38;5066637;28;20047;-82
2022/09/02 04:57:12;;;;;;;;;;;;;;;26.69;63.71;101069.00;5071380;28;20036;-83
2022/09/02 04:59:38;;;;;;;7.95;4.80;;;;;;;26.58;63.61;101059.25;5040274;28;19969;-85
2022/09/02 05:02:07;;;;;;;6.35;5.22;;;;;;;26.65;63.92;101069.94;5068675;28;20063;-84
2022/09/02 05:04:33;;;;;;;7.30;5.10;;;;;;;26.68;63.46;101078.84;5054273;28;20056;-84
2022/09/02 05:07:02;;;;;;;9.23;5.10;;;;;;;26.68;63.75;101072.59;5053583;28;20577;-84
2022/09/02 05:09:28;;;;;;;6.78;5.13;;;;;;;26.60;63.74;101065.50;5050413;28;20032;-85
2022/09/02 05:11:57;;;;;;;12.07;5.28;;;;;;;26.74;63.95;101081.47;5071915;28;20148;-84
2022/09/02 05:14:24;;;;;;;7.35;4.75;;;;;;;26.68;63.72;101069.91;5071419;28;20154;-84
2022/09/02 05:16:53;;;;;;;7.78;5.05;;;;;;;26.73;64.05;101084.16;5053151;28;20025;-83
2022/09/02 05:19:22;;;;;;;7.95;5.10;;;;;;;26.70;63.82;101082.41;5049453;28;20107;-83
2022/09/02 05:21:49;;;;;;;8.23;5.30;;;;;;;26.68;63.96;101084.19;5070863;28;20063;-82
2022/09/02 05:24:16;;;;;;;8.68;4.80;;;;;;;26.65;63.94;101089.59;5067426;28;20043;-83
2022/09/02 05:26:43;;;;;;;7.00;5.30;;;;;;;26.63;64.41;101098.53;5049997;28;20505;-83
2022/09/02 05:29:10;;;;;;;6.68;5.00;;;;;;;26.58;64.59;101085.16;5049393;28;20033;-83
2022/09/02 05:31:36;;;;;;;7.45;5.10;;;;;;;26.53;64.67;101085.16;5062731;28;20478;-83
2022/09/02 05:34:01;;;;;;;7.97;4.93;;;;;;;26.58;64.72;101075.31;5050642;28;20044;-84
2022/09/02 05:36:27;;;;;;;8.20;4.93;;;;;;;26.63;64.58;101080.69;5069908;28;20494;-82
2022/09/02 05:38:53;;;;;;;8.10;5.43;;;;;;;26.58;65.13;101083.38;5065565;28;20032;-82
2022/09/02 05:41:22;;;;;;;;;;;;;;;26.62;64.73;101094.97;5068963;28;20032;-81
2022/09/02 05:43:52;;;;;;;8.18;4.93;;;;;;;26.58;65.21;101079.81;5041464;28;20015;-81
2022/09/02 05:46:21;;;;;;;8.07;4.70;;;;;;;26.61;65.29;101090.50;5048003;28;20032;-83
2022/09/02 05:49:05;;;;;;;9.25;4.50;;;;;;;26.61;64.67;101087.84;5068749;28;20518;-83
2022/09/02 05:52:00;;;;;;;6.38;4.80;;;;;;;26.56;65.50;101090.56;5048808;28;20047;-83
2022/09/02 05:54:35;;;;;;;8.35;4.90;;;;;;;26.57;65.51;101096.78;5030164;28;20036;-83
2022/09/02 05:57:08;;;;;;;6.88;4.80;;;;;;;26.65;64.79;101089.59;5061871;28;20497;-81
2022/09/02 05:59:35;;;;;;;8.50;4.78;;;;;;;26.58;65.21;101080.69;5067262;28;20016;-81
2022/09/02 06:02:01;;;;;;;7.70;4.68;;;;;;;26.68;64.93;101092.25;5052691;28;20031;-81
2022/09/02 06:04:27;;;;;;;6.72;4.85;;;;;;;26.64;64.71;101085.13;5065289;28;20028;-82
2022/09/02 06:06:53;;;;;;;6.70;4.63;;;;;;;26.66;65.08;101090.47;5060300;28;20021;-83
2022/09/02 06:09:22;;;;;;;9.18;5.03;;;;;;;26.65;64.76;101088.69;5052350;28;20508;-83
2022/09/02 06:11:48;;;;;;;7.82;4.43;;;;;;;26.59;65.42;101090.50;5052311;28;20412;-83
2022/09/02 06:14:20;;;;;;;7.38;5.10;;;;;;;26.64;64.94;101084.25;5069854;28;20554;-83
2022/09/02 06:16:47;;;;;;;8.02;4.72;;;;;;;26.70;65.23;101098.47;5070474;28;20486;-82
2022/09/02 06:19:13;;;;;;;8.93;5.15;;;;;;;26.63;64.88;101086.03;5068599;28;20025;-82
2022/09/02 06:21:41;;;;;;;8.45;5.20;;;;;;;26.68;64.91;101100.28;5065991;28;20020;-83
2022/09/02 06:24:08;;;;;;;10.32;5.03;;;;;;;26.72;65.14;101101.16;5050052;28;20055;-82
2022/09/02 06:26:35;;;;;;;6.63;4.57;;;;;;;26.69;65.23;101107.44;5069295;28;20028;-82
2022/09/02 06:29:01;;;;;;;6.28;4.70;;;;;;;26.65;64.97;101094.94;5073536;28;20107;-83
2022/09/02 06:31:26;;;;;;;7.85;4.43;;;;;;;26.68;64.79;101108.31;5056355;28;20028;-82
2022/09/02 06:33:54;;;;;;;9.25;5.07;;;;;;;26.55;65.71;101095.88;5073282;28;20056;-82
2022/09/02 06:36:21;;;;;;;6.35;4.72;;;;;;;26.63;65.04;101101.19;5074878;28;20020;-83
2022/09/02 06:38:48;;;;;;;6.93;4.60;;;;;;;26.56;65.32;101097.63;5074876;28;20493;-83
2022/09/02 06:41:17;;;;;;;8.80;4.80;;;;;;;26.52;65.72;101120.91;5074770;28;20370;-83
2022/09/02 06:43:43;;;;;;;7.15;4.57;;;;;;;26.51;65.88;101110.19;5074729;28;20405;-83
2022/09/02 06:46:17;;;;;;;8.40;4.90;;;;;;;26.57;66.10;101116.44;5074511;28;20020;-83
2022/09/02 06:48:43;;;;;;;7.05;4.68;;;;;;;26.53;65.28;101111.94;5068397;28;20032;-82
2022/09/02 06:51:22;;;;;;;8.57;4.72;;;;;;;26.55;65.50;101103.91;5073381;28;20730;-82
2022/09/02 06:53:59;;;;;;;8.63;5.07;;;;;;;26.46;65.88;101090.56;5056620;28;20035;-84
2022/09/02 06:56:32;;;;;;;;;;;;;;;26.55;65.90;101101.22;5042626;28;20020;-83
2022/09/02 06:59:00;;;;;;;5.88;4.72;;;;;;;26.41;65.73;101085.25;5043247;28;19908;-84
2022/09/02 07:01:28;;;;;;;7.72;5.00;;;;;;;26.54;65.59;101111.06;5056451;28;20639;-83
2022/09/02 07:06:43;;;;;;;11.10;5.13;;;;;;;26.50;65.92;101122.69;5072334;28;20405;-83
2022/09/02 07:09:11;;;;;;;8.80;4.57;;;;;;;26.55;65.54;101115.50;5074931;28;20024;-83
2022/09/02 07:11:37;;;;;;;9.48;5.03;;;;;;;26.53;65.64;101113.75;5041933;28;20028;-84
2022/09/02 07:14:03;;;;;;;9.70;5.10;;;;;;;26.54;65.52;101110.16;5056831;28;20044;-84
2022/09/02 07:16:32;;;;;;;6.72;4.95;;;;;;;26.57;65.20;101124.47;5074080;28;20027;-84
2022/09/02 07:19:01;;;;;;;10.15;5.65;;;;;;;26.36;66.50;101104.03;5074551;28;20050;-83
2022/09/02 07:21:30;;;;;;;6.90;4.97;;;;;;;26.54;65.58;101120.88;5070866;28;20021;-83
2022/09/02 07:24:00;;;;;;;7.93;4.82;;;;;;;26.54;66.26;101121.78;5060206;28;20020;-83
2022/09/02 07:26:32;;;;;;;9.00;5.20;;;;;;;26.52;65.43;101120.91;5051778;28;20394;-84
2022/09/02 07:29:01;;;;;;;6.88;5.07;;;;;;;26.40;65.59;101103.09;5038431;28;20051;-84
2022/09/02 07:31:35;;;;;;;8.13;5.07;;;;;;;26.32;66.01;101082.63;5077250;28;20023;-84
2022/09/02 07:34:06;;;;;;;10.88;5.55;;;;;;;26.20;66.20;101075.53;5039062;28;20520;-85
2022/09/02 07:36:36;;;;;;;6.00;4.68;;;;;;;26.09;65.54;101042.59;5039527;28;20020;-82
2022/09/02 07:39:05;;;;;;;8.55;5.50;;;;;;;26.23;65.98;101064.84;5040581;28;20036;-83
2022/09/02 07:41:31;;;;;;;8.30;5.05;;;;;;;26.27;65.82;101081.75;5046870;28;20032;-83
2022/09/02 07:43:57;;;;;;;9.20;5.70;;;;;;;26.33;66.44;101097.78;5065690;28;20599;-83
2022/09/02 07:46:23;;;;;;;7.95;5.80;;;;;;;26.28;65.79;101073.72;5035872;28;20108;-83
2022/09/02 07:48:49;;;;;;;8.35;5.38;;;;;;;26.48;66.48;101104.84;5051587;28;20486;-83
2022/09/02 07:51:27;;;;;;;10.95;6.07;;;;;;;26.44;66.64;101103.97;5037116;28;20021;-93
2022/09/02 07:54:06;;;;;;;9.18;6.20;;;;;;;26.36;66.72;101093.31;5035374;28;20026;-94
2022/09/02 07:56:32;;;;;;;10.98;5.90;;;;;;;26.44;66.29;101105.75;5042939;28;20031;-84
2022/09/02 07:58:57;;;;;;;8.55;5.68;;;;;;;26.57;66.00;101128.94;5058776;28;20025;-83
2022/09/02 08:01:23;;;;;;;10.70;6.45;;;;;;;26.51;67.25;101116.44;5057984;28;20028;-83
2022/09/02 08:03:49;;;;;;;;;;;;;;;26.59;65.74;101119.09;5027134;28;20041;-83
2022/09/02 08:06:15;;;;;;;8.70;5.80;;;;;;;26.53;65.91;101103.03;5047064;28;19915;-83
2022/09/02 08:08:41;;;;;;;10.25;6.45;;;;;;;26.62;66.20;101120.88;5045885;28;20140;-81
2022/09/02 08:11:07;;;;;;;9.70;5.75;;;;;;;26.58;66.16;101126.22;5051809;28;20108;-83
2022/09/02 08:13:34;;;;;;;13.98;7.28;;;;;;;26.56;67.36;101122.69;5051553;28;20458;-82
2022/09/02 08:16:01;;;;;;;9.13;6.68;;;;;;;26.56;66.97;101119.06;5052286;28;20083;-82
2022/09/02 08:18:28;;;;;;;11.57;6.45;;;;;;;26.57;66.72;101118.22;5033514;28;20115;-82
2022/09/02 08:20:54;;;;;;;11.68;7.03;;;;;;;26.54;67.04;101105.72;5057558;28;20013;-81
2022/09/02 08:23:20;;;;;;;11.55;6.70;;;;;;;26.59;67.59;101117.31;5037511;28;20020;-82
2022/09/02 08:25:46;;;;;;;10.40;6.22;;;;;;;26.62;66.51;101120.88;5048411;28;20083;-83
2022/09/02 08:28:12;;;;;;;10.80;6.68;;;;;;;26.58;66.83;101120.88;5026876;28;20029;-83
2022/09/02 08:30:37;;;;;;;;;;;;;;;26.60;67.01;101123.53;5033575;28;20082;-82
2022/09/02 08:33:03;;;;;;;9.18;6.47;;;;;;;26.52;66.45;101096.78;5017031;28;20008;-81
2022/09/02 08:35:29;;;;;;;10.60;6.50;;;;;;;26.66;66.18;101122.63;5051784;28;20074;-83
2022/09/02 08:37:56;;;;;;;;;;;;;;;26.66;66.72;101118.16;5054185;28;20028;-82
2022/09/02 08:40:24;;;;;;;10.48;6.50;;;;;;;26.68;66.57;101111.00;5054079;28;19939;-82
2022/09/02 08:42:54;;;;;;;10.15;6.22;;;;;;;26.69;66.20;101103.84;5054249;28;20029;-82
2022/09/02 08:45:24;;;;;;;11.75;6.88;;;;;;;26.69;67.05;101112.78;5052261;28;20512;-82
2022/09/02 08:48:09;;;;;;;10.55;6.15;;;;;;;26.68;67.13;101105.63;5050867;28;20028;-82
2022/09/02 08:50:37;;;;;;;10.13;6.68;;;;;;;26.68;66.90;101105.63;5071509;28;20033;-83
2022/09/02 08:53:11;;;;;;;10.40;6.63;;;;;;;26.72;66.74;101115.44;5053894;28;20028;-84
2022/09/02 08:55:50;;;;;;;9.50;6.38;;;;;;;26.64;66.09;101095.84;5071377;28;20032;-84
2022/09/02 08:58:23;;;;;;;10.98;6.88;;;;;;;26.51;66.98;101088.75;5067148;28;20036;-82
2022/09/02 09:01:26;;;;;;;11.75;6.82;;;;;;;26.64;66.73;101111.91;5048673;28;20012;-81
2022/09/02 09:04:33;;;;;;;10.38;6.40;;;;;;;26.77;66.25;101116.28;5030051;28;20040;-82
2022/09/02 09:07:17;;;;;;;10.15;6.60;;;;;;;26.74;66.93;101108.28;5066782;28;20489;-82
2022/09/02 09:10:08;;;;;;;12.07;6.93;;;;;;;26.76;67.09;101094.88;5051243;28;20021;-82
2022/09/02 09:13:13;;;;;;;13.07;7.20;;;;;;;26.55;66.63;101069.97;5064885;28;20065;-82
2022/09/02 09:15:53;;;;;;;10.90;6.30;;;;;;;26.68;67.25;101092.25;5079636;28;20090;-84
2022/09/02 09:18:50;;;;;;;11.40;6.90;;;;;;;26.35;66.41;101029.03;5052574;28;20036;-83
2022/09/02 09:21:16;;;;;;;;;;;;;;;26.79;66.36;101095.72;5036426;28;20036;-84
2022/09/02 09:23:43;;;;;;;10.50;7.03;;;;;;;26.64;66.50;101069.06;5055223;28;19969;-83
2022/09/02 09:26:11;;;;;;;10.73;6.85;;;;;;;26.55;66.49;101058.38;5055751;28;20485;-83
2022/09/02 09:28:46;;;;;;;12.63;8.02;;;;;;;26.70;68.23;101093.13;5036514;28;20032;-83
2022/09/02 09:31:23;;;;;;;14.52;7.68;;;;;;;26.72;67.66;101090.44;5061724;28;20029;-81
2022/09/02 09:34:10;;;;;;;10.38;6.88;;;;;;;26.61;66.74;101066.41;5052725;28;20047;-82
2022/09/02 09:36:39;;;;;;;13.05;7.45;;;;;;;26.79;66.98;101095.72;5050551;28;20021;-82
2022/09/02 09:39:29;;;;;;;10.35;6.88;;;;;;;26.84;66.14;101089.44;5059923;28;20032;-83
2022/09/02 09:42:17;;;;;;;10.60;7.03;;;;;;;26.87;66.26;101084.06;5059418;28;20033;-83
2022/09/02 09:44:49;;;;;;;9.93;7.05;;;;;;;26.88;66.15;101083.16;5038479;28;20032;-82
2022/09/02 09:47:25;;;;;;;12.73;7.55;;;;;;;26.70;65.80;101050.25;5076490;28;20028;-81
2022/09/02 09:50:17;;;;;;;9.52;7.18;;;;;;;26.88;66.17;101075.09;5083836;28;20025;-81
2022/09/02 09:52:44;;;;;;;10.18;6.95;;;;;;;26.74;66.26;101045.75;5074282;28;20021;-81
2022/09/02 09:55:20;;;;;;;12.50;7.70;;;;;;;26.84;66.57;101068.91;5068341;28;20021;-82
2022/09/02 09:57:47;;;;;;;;;;;;;;;26.90;66.47;101068.84;5067747;28;20028;-82
2022/09/02 10:00:31;;;;;;;9.90;7.43;;;;;;;26.81;65.70;101050.16;5062944;28;19912;-82
2022/09/02 10:03:00;;;;;;;10.35;7.63;;;;;;;26.86;66.02;101060.81;5031848;28;20032;-82
2022/09/02 10:05:30;;;;;;;12.30;7.10;;;;;;;26.79;65.80;101043.91;5051605;28;20479;-80
2022/09/02 10:08:18;;;;;;;10.63;7.20;;;;;;;26.93;65.75;101063.47;5071126;28;20078;-82
2022/09/02 10:11:01;;;;;;;11.60;7.53;;;;;;;26.88;66.56;101053.66;5068882;28;20041;-81
2022/09/02 10:13:32;;;;;;;15.02;7.68;;;;;;;26.91;66.93;101048.31;5036415;28;20016;-79
2022/09/02 10:16:17;;;;;;;12.68;7.65;;;;;;;26.55;65.73;100984.25;5070689;28;20028;-82
2022/09/02 10:18:50;;;;;;;11.23;7.50;;;;;;;26.98;65.98;101039.28;5065209;28;20093;-81
2022/09/02 10:21:47;;;;;;;11.63;7.30;;;;;;;26.98;65.84;101026.75;5050408;28;20032;-83
2022/09/02 10:24:27;;;;;;;9.60;7.50;;;;;;;26.95;65.98;101018.78;5048525;28;20028;-81
2022/09/02 10:26:57;;;;;;;11.98;7.75;;;;;;;26.93;66.30;101020.56;5062360;28;20039;-82
2022/09/02 10:29:32;;;;;;;10.98;7.57;;;;;;;26.96;66.29;101019.66;5047495;28;20569;-82
2022/09/02 10:32:22;;;;;;;10.90;7.53;;;;;;;26.91;66.73;101014.34;5059325;28;20067;-82
2022/09/02 10:35:12;;;;;;;10.93;7.15;;;;;;;26.96;66.02;101023.22;5045212;28;20056;-82
2022/09/02 10:38:12;;;;;;;9.95;7.45;;;;;;;26.90;66.63;101003.63;5036787;28;20032;-83
2022/09/02 10:40:48;;;;;;;12.30;8.20;;;;;;;26.92;66.65;101024.13;5061903;28;20074;-82
2022/09/02 10:43:44;;;;;;;;;;;;;;;26.95;66.10;101023.25;5026334;28;20103;-83
2022/09/02 10:46:21;;;;;;;12.77;7.82;;;;;;;26.95;66.17;101009.84;4989557;28;19909;-83
2022/09/02 10:49:18;;;;;;;11.55;7.93;;;;;;;26.83;66.08;100988.53;5001265;28;20084;-83
2022/09/02 10:52:16;;;;;;;14.00;8.00;;;;;;;26.99;66.15;101014.28;5062477;28;20509;-83
2022/09/02 10:55:03;;;;;;;11.98;7.80;;;;;;;26.94;66.50;101019.66;5047795;28;20127;-83
2022/09/02 10:57:54;;;;;;;12.05;8.20;;;;;;;26.48;66.49;100953.09;5045449;28;20032;-83
2022/09/02 11:00:23;;;;;;;9.23;7.75;;;;;;;26.61;66.07;100972.66;5044802;28;20020;-83
2022/09/02 11:06:55;;;;;;;10.48;8.07;;;;;;;26.95;66.48;101028.59;5066577;28;20044;-83
2022/09/02 11:09:53;;;;;;;10.02;7.57;;;;;;;26.84;65.56;101004.59;5024612;28;20039;-84
2022/09/02 11:13:10;;;;;;;11.15;7.75;;;;;;;26.97;66.08;101033.03;5045556;28;20029;-83
2022/09/02 11:15:47;;;;;;;13.10;8.47;;;;;;;26.95;66.12;101036.66;5011351;28;20072;-82
2022/09/02 11:18:38;;;;;;;12.73;8.20;;;;;;;26.99;65.87;101025.88;5055033;28;20078;-83
2022/09/02 11:21:29;;;;;;;12.50;7.82;;;;;;;26.89;66.46;101020.63;5043146;28;20497;-81
2022/09/02 11:24:06;;;;;;;12.93;7.95;;;;;;;26.96;65.46;101016.97;5064824;28;20028;-82
2022/09/02 11:26:37;;;;;;;;;;;;;;;26.95;65.32;101016.09;5071545;28;20038;-83
2022/09/02 11:29:05;;;;;;;11.00;7.65;;;;;;;26.87;64.57;100996.50;5042569;28;19923;-81
2022/09/02 11:31:39;;;;;;;9.10;6.95;;;;;;;26.71;64.81;100971.66;5055980;28;20044;-82
2022/09/02 11:34:15;;;;;;;;;;;;;;;;;;;;;
2022/09/02 11:36:56;;;;;;;11.90;7.85;;;;;;;26.57;64.47;100928.03;5071573;28;20036;-82
2022/09/02 11:40:36;;;;;;;11.30;7.82;;;;;;;26.54;63.91;100922.66;5036393;28;20463;-82
2022/09/02 11:43:22;;;;;;;9.85;7.20;;;;;;;27.07;64.11;101000.78;4998893;28;20068;-82
2022/09/02 11:53:06;;;;;;;11.40;7.38;;;;;;;26.63;63.25;100897.59;4968228;28;20038;-82
2022/09/02 11:56:23;;;;;;;14.80;7.78;;;;;;;27.11;63.19;100984.63;5037520;28;20527;-82
2022/09/02 11:58:58;;;;;;;10.05;6.97;;;;;;;27.17;63.02;100978.31;5065128;28;20038;-82
2022/09/02 12:01:36;;;;;;;10.63;7.50;;;;;;;27.14;63.33;100976.56;5058713;28;20021;-82